Flight Track Log - Related Links

Times and Time Zones

All times are in EDT time to prevent confusion due to time zone crossing. See the KAP819 flight status page for this flight to view local times or setup timezone preferences in your user account.


Time Position Orientation Groundspeed Altitude Reporting Facility
EDT Latitude Longitude Course Direction KTS MPH feet Rate Location/Type
Sun 10:46:42 AM 42.7297 -73.8025 144° Southeast 127 146 800  Level Boston Center
Sun 10:48:01 AM 42.6969 -73.7706 144° Southeast 116 133 1,800 643 Climbing Boston Center
Sun 10:49:02 AM 42.6744 -73.7392 134° Southeast 121 139 2,300 567 Climbing Boston Center
Sun 10:50:08 AM 42.6686 -73.6881 99° East 137 158 3,000 583 Climbing Boston Center
Sun 10:50:45 AM 42.6814 -73.6603 58° Northeast 146 168 3,300 457 Climbing Boston Center
Sun 10:51:40 AM 42.6944 -73.6125 70° East 151 174 3,700 493 Climbing Boston Center
Sun 10:52:59 AM 42.7181 -73.5450 65° Northeast 153 176 4,400 495 Climbing Boston Center
Sun 10:54:42 AM 42.7503 -73.4522 65° Northeast 157 181 5,200 479 Climbing Boston Center
Sun 10:55:42 AM 42.7694 -73.3961 65° Northeast 157 181 5,700 450 Climbing Boston Center
Sun 10:56:42 AM 42.7783 -73.3397 78° East 157 181 6,100 450 Climbing Boston Center
Sun 10:57:42 AM 42.7619 -73.2828 111° Southeast 145 167 6,600 400 Climbing Boston Center
Sun 10:58:42 AM 42.7519 -73.2206 102° East 150 173 6,900 250 Climbing Boston Center
Sun 10:59:42 AM 42.7400 -73.1581 105° East 166 191 7,100 100 Climbing Boston Center
Sun 11:00:42 AM 42.7278 -73.0872 103° East 177 204 7,100  Level Boston Center
Sun 11:01:42 AM 42.7136 -73.0164 105° East 188 216 7,100 -50 Level Boston Center
Sun 11:02:42 AM 42.7036 -72.9542 102° East 188 216 7,000  Descending Boston Center
Sun 11:03:42 AM 42.6914 -72.8808 103° East 188 216 7,100  Climbing Boston Center
Sun 11:04:42 AM 42.6750 -72.8100 107° East 188 216 7,000  Descending Boston Center
Sun 11:05:42 AM 42.6647 -72.7367 101° East 188 216 7,100  Climbing Boston Center
Sun 11:06:42 AM 42.6608 -72.6603 94° East 188 216 7,000 -50 Descending Boston Center
Sun 11:07:42 AM 42.6586 -72.5842 92° East 194 223 7,000  Level Boston Center
Sun 11:08:42 AM 42.6567 -72.5078 92° East 199 229 7,000  Level Boston Center
Sun 11:09:42 AM 42.6547 -72.4344 92° East 199 229 7,000 -50 Level Boston Center
Sun 11:10:42 AM 42.6442 -72.3639 101° East 199 229 6,900 -200 Descending Boston Center
Sun 11:11:42 AM 42.6275 -72.2850 106° East 199 229 6,600 -300 Descending Boston Center
Sun 11:12:42 AM 42.6106 -72.2144 108° East 207 238 6,300 -400 Descending Boston Center
Sun 11:13:42 AM 42.5939 -72.1356 106° East 207 238 5,800 -400 Descending Boston Center
Sun 11:14:42 AM 42.5811 -72.0650 104° East 207 238 5,500 -150 Descending Boston Center
Sun 11:15:42 AM 42.5683 -71.9892 103° East 196 226 5,500  Level Boston Center
Sun 11:16:42 AM 42.5533 -71.9186 106° East 196 226 5,500  Level Boston Center
Sun 11:17:42 AM 42.5364 -71.8511 109° East 191 220 5,500  Level Boston Center
Sun 11:18:42 AM 42.5236 -71.7808 104° East 186 214 5,500  Level Boston Center
Sun 11:19:42 AM 42.5086 -71.7136 107° East 186 214 5,500 50 Level Boston Center
Sun 11:20:42 AM 42.4956 -71.6461 105° East 186 214 5,600  Climbing Boston Center
Sun 11:21:42 AM 42.4825 -71.5786 105° East 186 214 5,500 -59 Descending Boston Center
Sun 11:22:23 AM 42.4667 -71.5333 115° Southeast 188 216 5,500  Level KA90
Sun 11:23:16 AM 42.4667 -71.4667 90° East 189 217 5,500  Level KA90
Sun 11:24:16 AM 42.4667 -71.4000 90° East 194 223 5,500  Level KA90
Sun 11:25:17 AM 42.4833 -71.3333 71° East 192 221 5,500 -198 Level KA90
Sun 11:26:17 AM 42.5000 -71.2500 75° East 208 239 5,100 -450 Descending KA90
Sun 11:27:17 AM 42.5000 -71.1833 90° East 201 231 4,600 -768 Descending KA90
Sun 11:28:22 AM 42.4833 -71.1000 105° East 205 236 3,500 -1,048 Descending KA90
Sun 11:29:23 AM 42.4500 -71.0333 124° Southeast 192 221 2,400 -1,148 Descending KA90
Sun 11:30:17 AM 42.4167 -71.0000 144° Southeast 167 192 1,300 -1,053 Descending KA90
Sun 11:31:17 AM 42.3833 -71.0000 180° South 142 163 400 -900 Descending KA90
Sun 11:33:00 AM 42.3630 -71.0064 204° Southwest  Level Estimated

Login

Don't have an account? Register now (free) for customized features, flight alerts, and more!